CYAZ/YAZ METAR and TAF weather

Enter ICAO airport designator
Station Type Date Time Source
CYAZ METAR 2018/07/19 01:00 UTC NOAA

CYAZ 190100Z 29010G15KT 15SM FEW012 16/13 A3019 RMK CU2 LAST STFD OBS/NEXT 191300UTC SLP224


Station Type Date Time Source
CYAZ Decoded METAR 2018/07/19 01:00 UTC NOAA

Tofino Airport, Canada (CYAZ) 49-05N 125-46W
Jul 18, 2018 - 09:00 PM EDT / 2018.07.19 0100 UTC
Wind: from the WNW (290 degrees) at 12 MPH (10 KT) gusting to 17 MPH (15 KT):0
Visibility: 15 mile(s):0
Sky conditions: mostly clear
Temperature: 60 F (16 C)
Dew Point: 55 F (13 C)
Relative Humidity: 82%
Pressure (altimeter): 30.19 in. Hg (1022 hPa)
ob: CYAZ 190100Z 29010G15KT 15SM FEW012 16/13 A3019 RMK CU2 LAST STFD OBS/NEXT 191300UTC SLP224
cycle: 1

Station Type Date Time Source
CYAZ TAF 2018/07/18 18:00 UTC NOAA

TAF CYAZ 181739Z 1818/1901 29010KT P6SM FEW008
RMK NXT FCST WILL BE ISSUED AT 191445Z


Example: see airport list